Time;durP1;ratioP1;P1;durP2;ratioP2;P2;SDS_P1;SDS_P2;PMS_P1;PMS_P2;Temp;Humidity;BMP_temperature;BMP_pressure;BME280_temperature;BME280_humidity;BME280_pressure;Samples;Min_cycle;Max_cycle;Signal;HPM_P1;HPM_P2
2023/07/16 00:00:35;;;;;;;14.15;3.08;;;17.50;98.90;;;;;;5021477;28;20635;-71
2023/07/16 00:03:01;;;;;;;13.13;3.13;;;17.50;98.90;;;;;;4957963;28;211332;-72
2023/07/16 00:05:27;;;;;;;14.65;2.72;;;17.50;98.90;;;;;;5024371;28;20972;-71
2023/07/16 00:07:53;;;;;;;10.93;2.38;;;17.40;98.90;;;;;;4974390;28;212826;-71
2023/07/16 00:10:19;;;;;;;15.82;2.95;;;17.40;99.00;;;;;;5029154;28;20049;-71
2023/07/16 00:12:45;;;;;;;10.50;2.47;;;17.40;99.00;;;;;;4968271;28;215616;-71
2023/07/16 00:15:11;;;;;;;14.10;2.70;;;17.30;99.10;;;;;;5021571;28;20057;-71
2023/07/16 00:17:37;;;;;;;12.30;2.75;;;17.30;99.20;;;;;;4972460;28;210902;-71
2023/07/16 00:20:05;;;;;;;13.32;3.00;;;17.30;99.20;;;;;;5023642;28;20041;-70
2023/07/16 00:22:31;;;;;;;14.02;2.60;;;17.30;99.30;;;;;;4969343;28;219025;-70
2023/07/16 00:24:58;;;;;;;12.88;2.67;;;17.20;99.40;;;;;;5028512;28;20053;-70
2023/07/16 00:27:24;;;;;;;13.65;2.67;;;17.20;99.40;;;;;;4967351;28;210842;-70
2023/07/16 00:29:50;;;;;;;14.57;2.70;;;17.20;99.50;;;;;;5028702;28;20072;-71
2023/07/16 00:32:17;;;;;;;12.77;2.75;;;17.10;99.90;;;;;;4975830;28;179748;-71
2023/07/16 00:34:43;;;;;;;13.20;2.70;;;17.10;99.70;;;;;;5019813;28;20068;-70
2023/07/16 00:37:09;;;;;;;10.93;2.60;;;17.10;99.70;;;;;;4965205;28;209595;-70
2023/07/16 00:39:35;;;;;;;13.13;2.80;;;17.10;99.90;;;;;;5026568;28;20522;-69
2023/07/16 00:42:02;;;;;;;11.40;2.55;;;17.10;99.90;;;;;;4939515;28;234161;-70
2023/07/16 00:44:28;;;;;;;12.45;2.83;;;17.10;99.90;;;;;;4983026;28;20061;-69
2023/07/16 00:46:54;;;;;;;13.87;3.00;;;17.10;99.90;;;;;;4950291;28;218922;-69
2023/07/16 00:49:20;;;;;;;14.10;2.85;;;17.10;99.90;;;;;;5006195;28;20080;-69
2023/07/16 00:51:47;;;;;;;13.10;2.80;;;17.10;99.90;;;;;;4947141;28;210433;-69
2023/07/16 00:54:13;;;;;;;11.18;2.40;;;17.10;99.90;;;;;;5017038;28;20684;-69
2023/07/16 00:56:39;;;;;;;13.88;2.90;;;17.10;99.90;;;;;;4985974;28;209543;-70
2023/07/16 00:59:05;;;;;;;14.48;2.70;;;17.20;99.90;;;;;;4961916;28;20146;-70
2023/07/16 01:01:31;;;;;;;14.35;2.85;;;17.10;99.90;;;;;;5023028;28;20053;-70
2023/07/16 01:03:58;;;;;;;11.93;3.08;;;17.10;99.90;;;;;;4973892;28;210411;-70
2023/07/16 01:06:50;;;;;;;13.20;3.00;;;17.10;99.90;;;;;;5025427;28;20078;-70
2023/07/16 01:09:18;;;;;;;13.93;3.05;;;17.20;99.90;;;;;;4971192;28;40942;-70
2023/07/16 01:11:45;;;;;;;14.70;2.88;;;17.10;99.90;;;;;;4974088;28;209743;-69
2023/07/16 01:14:17;;;;;;;13.95;3.05;;;17.10;99.90;;;;;;5031612;28;20049;-70
2023/07/16 01:16:44;;;;;;;13.10;2.97;;;17.10;99.90;;;;;;4975002;28;208028;-69
2023/07/16 01:19:10;;;;;;;14.90;2.83;;;17.00;99.90;;;;;;5018644;28;20057;-70
2023/07/16 01:21:58;;;;;;;11.45;2.50;;;17.00;99.90;;;;;;4993748;28;213461;-70
2023/07/16 01:24:30;;;;;;;13.60;2.72;;;16.90;99.90;;;;;;4966221;28;34918;-70
2023/07/16 01:27:07;;;;;;;13.73;2.65;;;16.90;99.90;;;;;;4953574;28;210709;-70
2023/07/16 01:29:46;;;;;;;12.95;2.70;;;16.80;99.90;;;;;;5006303;28;20634;-70
2023/07/16 01:32:14;;;;;;;14.40;2.58;;;16.80;99.90;;;;;;4941314;28;219959;-70
2023/07/16 01:34:41;;;;;;;14.35;3.05;;;16.80;99.90;;;;;;5022719;28;20064;-71
2023/07/16 01:37:07;;;;;;;12.23;3.05;;;16.80;99.90;;;;;;4968387;28;215129;-71
2023/07/16 01:39:34;;;;;;;11.90;2.70;;;16.80;99.90;;;;;;5013797;28;20061;-70
2023/07/16 01:42:00;;;;;;;12.02;2.65;;;16.70;99.90;;;;;;4940364;28;212463;-70
2023/07/16 01:44:26;;;;;;;12.00;2.53;;;16.70;99.90;;;;;;5009781;28;20058;-70
2023/07/16 01:47:31;;;;;;;14.73;2.92;;;16.70;99.90;;;;;;4945508;28;210612;-71
2023/07/16 01:49:57;;;;;;;16.27;2.83;;;16.70;99.90;;;;;;5009352;28;20064;-70
2023/07/16 01:52:23;;;;;;;12.52;2.88;;;16.70;99.90;;;;;;4938911;28;209144;-70
2023/07/16 01:54:49;;;;;;;11.95;2.80;;;16.70;99.90;;;;;;4997448;28;20094;-70
2023/07/16 01:57:15;;;;;;;12.75;3.00;;;16.70;99.90;;;;;;4922053;28;213376;-70
2023/07/16 01:59:42;;;;;;;11.60;2.50;;;16.70;99.90;;;;;;4995296;28;20081;-69
2023/07/16 02:02:08;;;;;;;13.10;2.83;;;16.70;99.90;;;;;;4949726;28;217931;-69
2023/07/16 02:04:34;;;;;;;11.75;2.97;;;16.70;99.90;;;;;;5007385;28;20066;-70
2023/07/16 02:07:00;;;;;;;12.60;3.47;;;16.70;99.90;;;;;;4938873;28;212521;-69
2023/07/16 02:09:27;;;;;;;15.73;3.30;;;16.70;99.90;;;;;;5002188;28;20061;-70
2023/07/16 02:11:53;;;;;;;11.80;3.07;;;16.70;99.90;;;;;;4929190;28;211638;-70
2023/07/16 02:14:19;;;;;;;12.07;3.25;;;16.70;99.90;;;;;;5033434;28;20054;-69
2023/07/16 02:16:46;;;;;;;12.20;2.97;;;16.80;99.90;;;;;;4963725;28;218910;-71
2023/07/16 02:19:12;;;;;;;14.63;3.45;;;16.80;99.90;;;;;;4984829;28;20057;-70
2023/07/16 02:21:38;;;;;;;14.52;3.20;;;16.90;99.90;;;;;;4985566;28;212690;-69
2023/07/16 02:24:04;;;;;;;12.88;3.10;;;16.90;99.90;;;;;;4976565;28;145543;-68
2023/07/16 02:26:30;;;;;;;12.63;3.50;;;16.90;99.90;;;;;;5004261;28;20061;-69
2023/07/16 02:28:57;;;;;;;17.50;3.83;;;17.00;99.90;;;;;;4941131;28;210386;-70
2023/07/16 02:31:23;;;;;;;12.07;3.45;;;17.00;99.90;;;;;;5001867;28;20064;-70
2023/07/16 02:33:49;;;;;;;13.95;3.78;;;17.00;99.90;;;;;;4956064;28;219277;-69
2023/07/16 02:36:15;;;;;;;15.55;3.63;;;17.00;99.90;;;;;;5022288;28;20554;-69
2023/07/16 02:38:42;;;;;;;11.27;3.58;;;17.00;99.90;;;;;;4978754;28;212610;-69
2023/07/16 02:41:08;;;;;;;15.68;3.50;;;17.10;99.90;;;;;;5022344;28;20056;-71
2023/07/16 02:43:34;;;;;;;13.30;4.07;;;17.00;99.90;;;;;;4967738;28;210082;-69
2023/07/16 02:46:00;;;;;;;16.35;3.70;;;17.00;99.90;;;;;;5024807;28;20049;-69
2023/07/16 02:48:26;;;;;;;14.45;3.40;;;17.00;99.90;;;;;;4977075;28;215220;-69
2023/07/16 02:50:52;;;;;;;11.55;3.72;;;17.00;99.90;;;;;;5026756;28;20056;-69
2023/07/16 02:53:18;;;;;;;12.88;3.60;;;17.10;99.90;;;;;;4964267;28;214727;-68
2023/07/16 02:55:46;;;;;;;14.05;3.80;;;17.10;99.90;;;;;;5019614;28;20436;-68
2023/07/16 02:58:12;;;;;;;14.10;3.55;;;17.00;99.90;;;;;;4950654;28;213165;-69
2023/07/16 03:00:38;;;;;;;12.13;3.65;;;17.00;99.90;;;;;;5024121;28;20060;-69
2023/07/16 03:03:04;;;;;;;11.00;3.47;;;17.00;99.90;;;;;;4980760;28;213217;-70
2023/07/16 03:05:31;;;;;;;13.95;4.28;;;17.00;99.90;;;;;;5031031;28;20069;-70
2023/07/16 03:07:57;;;;;;;13.55;3.63;;;17.00;99.90;;;;;;4978266;28;210770;-70
2023/07/16 03:10:23;;;;;;;13.65;4.03;;;17.00;99.90;;;;;;5027871;28;20053;-70
2023/07/16 03:12:49;;;;;;;10.77;3.33;;;16.90;99.90;;;;;;4961771;28;216032;-70
2023/07/16 03:15:15;;;;;;;13.35;3.42;;;16.90;99.90;;;;;;5021636;28;20068;-69
2023/07/16 03:17:41;;;;;;;13.68;3.88;;;16.90;99.90;;;;;;4972136;28;207656;-72
2023/07/16 03:20:08;;;;;;;13.77;3.72;;;16.90;99.90;;;;;;4997752;28;20073;-70
2023/07/16 03:22:34;;;;;;;13.77;3.45;;;16.80;99.90;;;;;;4944643;28;212521;-70
2023/07/16 03:25:00;;;;;;;13.70;4.07;;;16.80;99.90;;;;;;5002269;28;20408;-71
2023/07/16 03:27:26;;;;;;;12.38;3.60;;;16.80;99.90;;;;;;4948383;28;211795;-70
2023/07/16 03:29:52;;;;;;;14.63;3.50;;;16.80;99.90;;;;;;5002496;28;20058;-71
2023/07/16 03:32:18;;;;;;;13.73;3.78;;;16.80;99.90;;;;;;4946929;28;217005;-71
2023/07/16 03:34:44;;;;;;;13.52;3.85;;;16.80;99.90;;;;;;5001891;28;20060;-70
2023/07/16 03:37:11;;;;;;;14.43;3.60;;;16.80;99.90;;;;;;4948058;28;212932;-71
2023/07/16 03:39:37;;;;;;;13.30;4.10;;;16.70;99.90;;;;;;5010508;28;20046;-70
2023/07/16 03:42:03;;;;;;;13.73;3.78;;;16.70;99.90;;;;;;4950935;28;215989;-70
2023/07/16 03:44:29;;;;;;;14.50;3.90;;;16.70;99.90;;;;;;4998144;28;20061;-71
2023/07/16 03:46:56;;;;;;;15.80;3.97;;;16.70;99.90;;;;;;4944290;28;219164;-70
2023/07/16 03:49:22;;;;;;;14.02;4.10;;;16.70;99.90;;;;;;5005883;28;20087;-69
2023/07/16 03:51:48;;;;;;;15.45;4.13;;;16.70;99.90;;;;;;4950225;28;205528;-69
2023/07/16 03:54:14;;;;;;;13.43;4.07;;;16.70;99.90;;;;;;5011475;28;20077;-70
2023/07/16 03:56:40;;;;;;;14.32;3.67;;;16.70;99.90;;;;;;4982121;28;210490;-68
2023/07/16 03:59:06;;;;;;;15.07;4.03;;;16.70;99.90;;;;;;4966015;28;205081;-69
2023/07/16 04:01:32;;;;;;;15.63;4.15;;;16.70;99.90;;;;;;5002108;28;20154;-70
2023/07/16 04:03:58;;;;;;;14.10;4.43;;;16.70;99.90;;;;;;4968347;28;222096;-69
2023/07/16 04:06:24;;;;;;;15.90;3.80;;;16.70;99.90;;;;;;5024002;28;20050;-69
2023/07/16 04:08:51;;;;;;;16.90;5.00;;;16.60;99.90;;;;;;4965174;28;213954;-70
2023/07/16 04:11:17;;;;;;;14.57;4.30;;;16.70;99.90;;;;;;5024224;28;20053;-70
2023/07/16 04:13:43;;;;;;;14.80;4.50;;;16.70;99.90;;;;;;4972216;28;211747;-69
2023/07/16 04:16:09;;;;;;;17.35;4.68;;;16.70;99.90;;;;;;5022452;28;20057;-70
2023/07/16 04:18:35;;;;;;;14.82;5.07;;;16.70;99.90;;;;;;4979391;28;213355;-70
2023/07/16 04:21:01;;;;;;;12.32;4.40;;;16.70;99.90;;;;;;5020618;28;20060;-70
2023/07/16 04:23:27;;;;;;;16.52;4.90;;;16.80;99.90;;;;;;4978059;28;210181;-71
2023/07/16 04:25:55;;;;;;;13.48;4.40;;;16.80;99.90;;;;;;5026009;28;20054;-71
2023/07/16 04:28:21;;;;;;;14.38;4.45;;;16.80;99.90;;;;;;4969389;28;226727;-70
2023/07/16 04:30:47;;;;;;;14.20;4.70;;;16.80;99.90;;;;;;5023444;28;20392;-71
2023/07/16 04:33:13;;;;;;;15.77;4.63;;;16.80;99.90;;;;;;4966859;28;240921;-70
2023/07/16 04:35:40;;;;;;;17.67;4.40;;;16.90;99.90;;;;;;5022421;28;20049;-71
2023/07/16 04:38:07;;;;;;;15.98;4.32;;;16.90;99.90;;;;;;4956553;28;211480;-70
2023/07/16 04:40:33;;;;;;;17.73;4.95;;;16.90;99.90;;;;;;5015100;28;20061;-70
2023/07/16 04:43:00;;;;;;;15.40;4.80;;;17.00;99.90;;;;;;4961510;28;213231;-70
2023/07/16 04:45:26;;;;;;;16.63;4.50;;;17.00;99.90;;;;;;5019974;28;20440;-70
2023/07/16 04:47:52;;;;;;;16.27;4.30;;;17.10;99.90;;;;;;4969279;28;219422;-71
2023/07/16 04:50:18;;;;;;;15.55;4.60;;;17.10;99.90;;;;;;5028252;28;20085;-70
2023/07/16 04:52:44;;;;;;;14.18;4.20;;;17.10;99.90;;;;;;4956076;28;213279;-67
2023/07/16 04:55:12;;;;;;;16.75;4.65;;;17.20;99.90;;;;;;5018742;28;20045;-71
2023/07/16 04:57:38;;;;;;;14.13;4.35;;;17.20;99.90;;;;;;4952255;28;207097;-71
2023/07/16 05:00:05;;;;;;;14.50;4.63;;;17.20;99.90;;;;;;5017474;28;20499;-71
2023/07/16 05:02:32;;;;;;;13.98;4.55;;;17.30;99.90;;;;;;4965928;28;210289;-70
2023/07/16 05:04:59;;;;;;;17.35;4.53;;;17.30;99.90;;;;;;5018534;28;20503;-69
2023/07/16 05:07:25;;;;;;;16.88;4.35;;;17.30;99.90;;;;;;4969999;28;211198;-70
2023/07/16 05:09:51;;;;;;;11.80;3.90;;;17.30;99.90;;;;;;5012399;28;20053;-70
2023/07/16 05:12:17;;;;;;;15.13;4.68;;;17.30;99.90;;;;;;4951485;28;210564;-70
2023/07/16 05:14:45;;;;;;;14.52;3.97;;;17.40;99.90;;;;;;4989603;28;20337;-69
2023/07/16 05:17:12;;;;;;;14.45;4.45;;;17.40;99.90;;;;;;4954547;28;209372;-69
2023/07/16 05:19:38;;;;;;;14.35;4.10;;;17.40;99.90;;;;;;5023588;28;20050;-69
2023/07/16 05:22:05;;;;;;;15.02;4.22;;;17.40;99.90;;;;;;4965877;28;212473;-69
2023/07/16 05:24:32;;;;;;;14.15;3.65;;;17.50;99.90;;;;;;5013142;28;20058;-69
2023/07/16 05:26:58;;;;;;;11.48;3.80;;;17.50;99.90;;;;;;4948173;28;215605;-69
2023/07/16 05:29:24;;;;;;;14.23;3.95;;;17.60;99.90;;;;;;5013446;28;20050;-69
2023/07/16 05:31:50;;;;;;;11.70;3.53;;;17.60;99.90;;;;;;4946371;28;213254;-69
2023/07/16 05:34:16;;;;;;;14.90;3.60;;;17.70;99.90;;;;;;5031398;28;20065;-69
2023/07/16 05:36:44;;;;;;;15.27;4.10;;;17.70;99.90;;;;;;4984530;28;212500;-69
2023/07/16 05:39:12;;;;;;;18.67;4.25;;;17.80;99.90;;;;;;5014525;28;20135;-71
2023/07/16 05:41:41;;;;;;;14.90;4.05;;;17.90;99.90;;;;;;5006659;28;211112;-70
2023/07/16 05:44:08;;;;;;;14.45;3.75;;;17.90;99.90;;;;;;4979748;28;207504;-69
2023/07/16 05:46:34;;;;;;;18.98;3.70;;;17.90;99.90;;;;;;5023145;28;20419;-70
2023/07/16 05:49:00;;;;;;;14.10;3.60;;;18.00;99.90;;;;;;4971779;28;208797;-70
2023/07/16 05:51:26;;;;;;;14.88;4.15;;;18.20;99.90;;;;;;5019651;28;20125;-70
2023/07/16 05:53:52;;;;;;;14.25;3.97;;;18.30;99.90;;;;;;4970762;28;216000;-69
2023/07/16 05:56:19;;;;;;;14.13;3.80;;;18.40;99.90;;;;;;5026623;28;20054;-70
2023/07/16 05:58:45;;;;;;;16.83;3.90;;;18.60;99.90;;;;;;4959454;28;210558;-70
2023/07/16 06:01:11;;;;;;;12.23;3.65;;;18.70;99.90;;;;;;5001858;28;20045;-67
2023/07/16 06:03:37;;;;;;;12.38;3.85;;;18.70;99.90;;;;;;4949424;28;212401;-70
2023/07/16 06:06:03;;;;;;;13.25;3.72;;;18.80;99.90;;;;;;5015585;28;20049;-69
2023/07/16 06:08:29;;;;;;;14.02;3.88;;;18.90;99.90;;;;;;4973972;28;216387;-69
2023/07/16 06:10:55;;;;;;;13.02;4.07;;;19.00;99.90;;;;;;5011592;28;20057;-70
2023/07/16 06:13:21;;;;;;;14.45;3.47;;;19.00;99.90;;;;;;4947519;28;233198;-68
2023/07/16 06:15:48;;;;;;;14.23;4.10;;;18.80;99.90;;;;;;5006062;28;20502;-68
2023/07/16 06:18:14;;;;;;;11.18;3.45;;;18.60;99.90;;;;;;4930270;28;206910;-69
2023/07/16 06:20:46;;;;;;;13.63;4.07;;;18.70;99.90;;;;;;5008628;28;20050;-71
2023/07/16 06:23:12;;;;;;;15.30;3.90;;;19.20;99.90;;;;;;4965100;28;209628;-70
2023/07/16 06:25:44;;;;;;;12.70;3.65;;;19.30;99.90;;;;;;5008452;28;20054;-70
2023/07/16 06:28:11;;;;;;;13.00;4.15;;;19.40;99.90;;;;;;4983311;28;208060;-70
2023/07/16 06:30:37;;;;;;;17.10;4.30;;;19.30;99.90;;;;;;5026843;28;20053;-69
2023/07/16 06:33:03;;;;;;;15.38;3.85;;;19.40;99.90;;;;;;4972454;28;217635;-69
2023/07/16 06:35:29;;;;;;;12.40;4.03;;;19.20;99.90;;;;;;5029607;28;20049;-71
2023/07/16 06:37:56;;;;;;;15.00;3.95;;;19.10;99.90;;;;;;4980359;28;216097;-70
2023/07/16 06:40:22;;;;;;;11.52;3.88;;;19.10;99.90;;;;;;5029678;28;20068;-69
2023/07/16 06:42:48;;;;;;;15.07;3.70;;;19.20;99.90;;;;;;4968158;28;215492;-69
2023/07/16 06:45:14;;;;;;;14.93;4.10;;;19.10;99.90;;;;;;5028991;28;20051;-72
2023/07/16 06:47:40;;;;;;;13.30;3.60;;;19.20;99.90;;;;;;4973846;28;210568;-71
2023/07/16 06:50:06;;;;;;;12.00;4.10;;;19.20;99.90;;;;;;5029348;28;20057;-71
2023/07/16 06:52:33;;;;;;;13.57;4.07;;;19.40;99.90;;;;;;4968427;28;210685;-68
2023/07/16 06:54:59;;;;;;;13.57;4.07;;;19.50;99.60;;;;;;5027799;28;20045;-68
2023/07/16 06:57:25;;;;;;;11.48;3.95;;;19.20;99.70;;;;;;4959834;28;206925;-69
2023/07/16 06:59:51;;;;;;;12.75;4.35;;;18.90;99.90;;;;;;5022937;28;20053;-69
2023/07/16 07:02:19;;;;;;;14.00;4.10;;;18.80;99.90;;;;;;4973486;28;214421;-69
2023/07/16 07:04:45;;;;;;;15.05;3.97;;;18.80;99.90;;;;;;5030545;28;20041;-68
2023/07/16 07:07:11;;;;;;;12.55;4.13;;;18.80;99.90;;;;;;4963291;28;213584;-68
2023/07/16 07:09:37;;;;;;;12.90;4.05;;;18.90;99.90;;;;;;5033349;28;20054;-68
2023/07/16 07:12:04;;;;;;;15.15;4.32;;;19.20;99.90;;;;;;4966007;28;195681;-70
2023/07/16 07:14:33;;;;;;;16.33;4.20;;;19.40;99.90;;;;;;5030033;28;20522;-71
2023/07/16 07:16:59;;;;;;;10.82;3.50;;;19.60;99.40;;;;;;4971812;28;209498;-69
2023/07/16 07:19:26;;;;;;;15.73;4.43;;;19.40;99.10;;;;;;4999882;28;20053;-70
2023/07/16 07:21:52;;;;;;;14.82;4.60;;;19.30;99.50;;;;;;4941498;28;228409;-70
2023/07/16 07:24:18;;;;;;;16.58;4.70;;;19.30;99.50;;;;;;5012945;28;20058;-69
2023/07/16 07:26:44;;;;;;;12.30;4.40;;;19.50;99.30;;;;;;4956498;28;218563;-68
2023/07/16 07:29:10;;;;;;;11.68;4.45;;;19.60;99.20;;;;;;5002258;28;20072;-70
2023/07/16 07:31:36;;;;;;;11.80;3.88;;;19.70;99.30;;;;;;5016752;28;213809;-68
2023/07/16 07:34:03;;;;;;;17.02;4.40;;;19.70;98.50;;;;;;4973553;28;209353;-69
2023/07/16 07:36:29;;;;;;;16.63;4.72;;;19.60;98.90;;;;;;5023622;28;20068;-69
2023/07/16 07:38:55;;;;;;;12.85;3.97;;;19.70;98.80;;;;;;4979535;28;224270;-68
2023/07/16 07:41:21;;;;;;;18.90;4.20;;;19.70;98.60;;;;;;5024243;28;20057;-69
2023/07/16 07:43:47;;;;;;;13.55;4.18;;;19.80;98.60;;;;;;4963683;28;215431;-70
2023/07/16 07:46:13;;;;;;;13.48;4.10;;;20.00;98.40;;;;;;5003298;28;20049;-68
2023/07/16 07:48:39;;;;;;;12.07;3.95;;;19.90;98.00;;;;;;4959705;28;212098;-67
2023/07/16 07:51:06;;;;;;;14.45;4.03;;;19.80;98.00;;;;;;5026902;28;20053;-68
2023/07/16 07:53:32;;;;;;;16.48;3.85;;;19.80;98.30;;;;;;4981935;28;222811;-67
2023/07/16 07:55:58;;;;;;;13.48;4.15;;;19.80;98.20;;;;;;5028765;28;20045;-70
2023/07/16 07:58:24;;;;;;;13.30;3.83;;;19.60;98.30;;;;;;4958973;28;215849;-68
2023/07/16 08:00:50;;;;;;;15.50;3.88;;;19.60;98.40;;;;;;5018933;28;20072;-68
2023/07/16 08:03:16;;;;;;;15.05;4.63;;;19.70;98.20;;;;;;4984447;28;210749;-68
2023/07/16 08:05:42;;;;;;;12.50;3.60;;;19.70;98.30;;;;;;5030296;28;20068;-67
2023/07/16 08:08:08;;;;;;;13.23;4.00;;;19.60;98.10;;;;;;4982826;28;221003;-68
2023/07/16 08:10:36;;;;;;;11.90;3.88;;;19.60;98.30;;;;;;5022385;28;20054;-68
2023/07/16 08:13:02;;;;;;;15.60;4.80;;;19.70;98.30;;;;;;4965432;28;225781;-68
2023/07/16 08:15:28;;;;;;;13.35;3.92;;;19.60;98.10;;;;;;5023775;28;20503;-67
2023/07/16 08:17:56;;;;;;;13.07;4.38;;;19.70;98.30;;;;;;4972209;28;208430;-68
2023/07/16 08:20:22;;;;;;;16.25;4.65;;;19.90;98.40;;;;;;5035969;28;20064;-68
2023/07/16 08:22:48;;;;;;;17.85;4.18;;;20.10;98.20;;;;;;4964649;28;215481;-69
2023/07/16 08:25:14;;;;;;;10.68;3.67;;;20.10;98.10;;;;;;5028317;28;20060;-67
2023/07/16 08:27:40;;;;;;;13.35;3.85;;;20.00;97.70;;;;;;4970736;28;230966;-67
2023/07/16 08:30:07;;;;;;;14.88;4.18;;;20.20;97.80;;;;;;5027502;28;20060;-69
2023/07/16 08:32:33;;;;;;;13.40;3.85;;;20.40;97.70;;;;;;4970423;28;252296;-69
2023/07/16 08:34:59;;;;;;;12.60;4.15;;;20.40;97.90;;;;;;5023747;28;20064;-68
2023/07/16 08:37:25;;;;;;;14.57;3.50;;;20.40;97.80;;;;;;4966394;28;223220;-68
2023/07/16 08:39:53;;;;;;;13.57;3.85;;;20.40;97.60;;;;;;5012993;28;20046;-70
2023/07/16 08:42:20;;;;;;;14.35;3.90;;;20.90;97.20;;;;;;4947843;28;239036;-67
2023/07/16 08:44:50;;;;;;;11.82;4.10;;;21.00;96.80;;;;;;5007125;28;20050;-67
2023/07/16 08:47:16;;;;;;;14.35;3.90;;;20.60;96.80;;;;;;4952467;28;219921;-66
2023/07/16 08:49:54;;;;;;;12.98;4.13;;;21.30;96.50;;;;;;5016801;28;20507;-67
2023/07/16 08:52:22;;;;;;;15.15;3.97;;;21.80;96.30;;;;;;4956090;28;213555;-69
2023/07/16 08:54:48;;;;;;;18.42;4.82;;;22.20;95.50;;;;;;5016698;28;20053;-68
2023/07/16 08:57:14;;;;;;;10.75;3.42;;;22.30;95.60;;;;;;4951733;28;216253;-68
2023/07/16 08:59:41;;;;;;;14.13;4.30;;;22.70;94.90;;;;;;5010957;28;20510;-67
2023/07/16 09:02:07;;;;;;;12.50;4.00;;;22.50;95.20;;;;;;4947597;28;213382;-69
2023/07/16 09:04:33;;;;;;;14.98;4.22;;;22.70;95.50;;;;;;5014994;28;20045;-68
2023/07/16 09:07:00;;;;;;;10.57;3.70;;;22.40;95.50;;;;;;4955613;28;244988;-66
2023/07/16 09:09:26;;;;;;;16.67;3.55;;;22.20;94.90;;;;;;5013312;28;20061;-68
2023/07/16 09:11:52;;;;;;;15.02;4.05;;;21.60;95.50;;;;;;4946715;28;218994;-67
2023/07/16 09:14:19;;;;;;;12.82;3.53;;;21.50;95.80;;;;;;5019095;28;20049;-66
2023/07/16 09:16:52;;;;;;;11.40;3.87;;;21.40;95.70;;;;;;4947232;28;207666;-66
2023/07/16 09:19:18;;;;;;;18.73;3.95;;;20.90;96.10;;;;;;5013180;28;20641;-67
2023/07/16 09:21:48;;;;;;;13.75;3.67;;;20.60;96.50;;;;;;4954210;28;214293;-67
2023/07/16 09:24:15;;;;;;;14.77;3.70;;;20.50;96.80;;;;;;4999873;28;20052;-67
2023/07/16 09:26:58;;;;;;;14.57;4.00;;;20.50;96.90;;;;;;4971448;28;212975;-68
2023/07/16 09:29:28;;;;;;;12.75;4.00;;;20.30;97.20;;;;;;4975297;28;20050;-67
2023/07/16 09:31:59;;;;;;;15.07;3.92;;;20.60;96.90;;;;;;4940334;28;260854;-69
2023/07/16 09:34:29;;;;;;;13.05;4.28;;;20.80;96.80;;;;;;5009847;28;20065;-68
2023/07/16 09:37:00;;;;;;;14.20;4.10;;;20.80;96.90;;;;;;4945154;28;215849;-67
2023/07/16 09:39:27;;;;;;;9.80;3.78;;;20.90;96.70;;;;;;4998006;28;20050;-68
2023/07/16 09:41:57;;;;;;;11.75;3.80;;;20.80;96.70;;;;;;4946427;28;213342;-67
2023/07/16 09:44:23;;;;;;;12.30;3.85;;;21.00;96.60;;;;;;5012856;28;20134;-66
2023/07/16 09:46:49;;;;;;;12.77;3.80;;;21.10;96.40;;;;;;4945404;28;217361;-67
2023/07/16 09:49:16;;;;;;;11.80;3.50;;;20.80;96.50;;;;;;4993658;28;20057;-66
2023/07/16 09:51:44;;;;;;;10.02;3.40;;;20.90;96.70;;;;;;4966224;28;219240;-65
2023/07/16 09:54:14;;;;;;;15.05;4.05;;;20.90;96.00;;;;;;4983746;28;20050;-68
2023/07/16 09:56:54;;;;;;;16.38;4.65;;;20.90;96.30;;;;;;4981144;28;248679;-68
2023/07/16 09:59:23;;;;;;;16.30;4.07;;;21.00;96.20;;;;;;4971560;28;20072;-68
2023/07/16 10:01:51;;;;;;;11.87;3.80;;;21.00;96.30;;;;;;4941880;28;214131;-68
2023/07/16 10:04:19;;;;;;;10.73;3.70;;;21.10;96.20;;;;;;4996269;28;20054;-68
2023/07/16 10:06:55;;;;;;;12.20;3.75;;;21.20;96.00;;;;;;4946314;28;211253;-68
2023/07/16 10:09:40;;;;;;;16.98;4.28;;;21.00;96.10;;;;;;4986675;28;20053;-67
2023/07/16 10:12:18;;;;;;;16.13;4.00;;;20.90;96.20;;;;;;4947154;28;218399;-68
2023/07/16 10:14:58;;;;;;;12.38;3.90;;;20.80;96.70;;;;;;4995759;28;20598;-68
2023/07/16 10:17:25;;;;;;;17.70;4.68;;;21.10;96.50;;;;;;4949600;28;209805;-67
2023/07/16 10:20:10;;;;;;;11.60;4.03;;;21.30;96.30;;;;;;5013742;28;20683;-67
2023/07/16 10:22:46;;;;;;;13.00;4.45;;;21.40;96.00;;;;;;4952015;28;217312;-69
2023/07/16 10:25:19;;;;;;;11.15;4.00;;;21.70;96.30;;;;;;4992673;28;20067;-68
2023/07/16 10:27:50;;;;;;;12.15;4.20;;;21.90;95.70;;;;;;4931642;28;253400;-67
2023/07/16 10:30:17;;;;;;;14.32;4.28;;;22.00;95.70;;;;;;4989722;28;20055;-68
2023/07/16 10:32:43;;;;;;;16.10;4.20;;;21.80;95.80;;;;;;4940301;28;212216;-68
2023/07/16 10:35:10;;;;;;;15.57;3.95;;;21.70;95.30;;;;;;4992599;28;20061;-68
2023/07/16 10:37:38;;;;;;;13.15;3.83;;;21.50;96.00;;;;;;4957493;28;78720;-67
2023/07/16 10:40:09;;;;;;;14.65;3.70;;;21.30;95.60;;;;;;5002246;28;20046;-67
2023/07/16 10:42:35;;;;;;;12.10;3.90;;;21.50;95.90;;;;;;5001568;28;20248;-67
2023/07/16 10:45:04;;;;;;;11.52;3.45;;;21.50;95.80;;;;;;5000294;28;20072;-67
2023/07/16 10:47:32;;;;;;;14.15;3.80;;;21.30;95.60;;;;;;4993320;28;20070;-67
2023/07/16 10:49:58;;;;;;;11.70;3.50;;;21.10;95.50;;;;;;4996451;28;20488;-68
2023/07/16 10:52:25;;;;;;;9.55;3.33;;;20.90;95.70;;;;;;4982222;28;260211;-68
2023/07/16 10:54:57;;;;;;;11.80;3.88;;;20.90;96.00;;;;;;4998023;28;20054;-68
2023/07/16 10:57:27;;;;;;;11.57;3.95;;;21.00;96.20;;;;;;4980320;28;260376;-68
2023/07/16 10:59:55;;;;;;;15.10;3.90;;;21.10;96.20;;;;;;5008507;28;20050;-68
2023/07/16 11:02:23;;;;;;;10.60;3.58;;;21.20;96.20;;;;;;4996723;28;260601;-67
2023/07/16 11:04:50;;;;;;;15.73;3.80;;;21.50;95.90;;;;;;5008664;28;20056;-67
2023/07/16 11:07:16;;;;;;;13.18;3.60;;;21.70;95.70;;;;;;4992979;28;119192;-67
2023/07/16 11:09:50;;;;;;;12.20;3.40;;;21.50;95.60;;;;;;5007497;28;20062;-68
2023/07/16 11:12:19;;;;;;;12.15;3.30;;;21.40;95.70;;;;;;4994739;28;267867;-68
2023/07/16 11:14:47;;;;;;;12.05;3.08;;;21.40;95.50;;;;;;5003052;28;20058;-69
2023/07/16 11:17:14;;;;;;;13.35;3.58;;;21.20;95.40;;;;;;5012517;28;131162;-67
2023/07/16 11:19:42;;;;;;;11.18;3.50;;;21.20;96.00;;;;;;5010283;28;20049;-68
2023/07/16 11:22:10;;;;;;;12.82;3.75;;;21.30;95.80;;;;;;4990636;28;260075;-68
2023/07/16 11:24:42;;;;;;;12.23;3.10;;;21.50;95.90;;;;;;5004620;28;20054;-68
2023/07/16 11:27:27;;;;;;;11.80;3.63;;;21.60;95.80;;;;;;4982024;28;262270;-69
2023/07/16 11:29:58;;;;;;;10.73;3.10;;;21.40;96.00;;;;;;5002311;28;20061;-68
2023/07/16 11:32:33;;;;;;;11.52;3.20;;;21.30;95.70;;;;;;4994268;28;275361;-70
2023/07/16 11:35:02;;;;;;;11.27;3.70;;;21.20;96.00;;;;;;5001579;28;20455;-68
2023/07/16 11:37:31;;;;;;;12.70;4.03;;;21.00;96.30;;;;;;4993550;28;78373;-69
2023/07/16 11:39:58;;;;;;;15.75;4.40;;;20.90;96.40;;;;;;5007191;28;20066;-68
2023/07/16 11:42:28;;;;;;;13.25;4.00;;;20.70;96.60;;;;;;4998773;28;195402;-68
2023/07/16 11:44:55;;;;;;;12.23;4.33;;;20.70;96.80;;;;;;5006200;28;20053;-68
2023/07/16 11:47:21;;;;;;;13.02;4.00;;;20.70;96.90;;;;;;4992433;28;267185;-69
2023/07/16 11:49:49;;;;;;;13.43;4.15;;;20.60;97.80;;;;;;5009988;28;20437;-68
2023/07/16 11:52:20;;;;;;;14.35;4.00;;;20.50;97.90;;;;;;4992735;28;276682;-69
2023/07/16 11:54:46;;;;;;;11.48;4.47;;;20.50;97.40;;;;;;5004258;28;20065;-69
2023/07/16 11:57:12;;;;;;;13.55;4.18;;;20.60;97.30;;;;;;4979531;28;272741;-70
2023/07/16 11:59:38;;;;;;;13.02;4.30;;;20.70;97.20;;;;;;4996707;28;20046;-69
2023/07/16 12:02:04;;;;;;;14.13;4.30;;;20.70;97.00;;;;;;5001921;28;263469;-69
2023/07/16 12:04:30;;;;;;;12.05;4.32;;;21.00;96.90;;;;;;5028470;28;20054;-70
2023/07/16 12:06:56;;;;;;;13.48;4.32;;;21.00;97.00;;;;;;5006825;28;254391;-69
2023/07/16 12:09:23;;;;;;;12.25;4.40;;;20.90;97.00;;;;;;5013947;28;20045;-69
2023/07/16 12:11:49;;;;;;;18.23;4.40;;;21.00;97.00;;;;;;4991368;28;268648;-69
2023/07/16 12:14:15;;;;;;;10.68;3.97;;;21.00;97.10;;;;;;5001046;28;20054;-68
2023/07/16 12:16:41;;;;;;;11.13;3.92;;;21.10;96.90;;;;;;4994972;28;267909;-69
2023/07/16 12:19:09;;;;;;;12.63;4.13;;;21.30;96.90;;;;;;5012741;28;20499;-68
2023/07/16 12:21:36;;;;;;;16.00;4.13;;;22.20;96.20;;;;;;4989570;28;258280;-68
2023/07/16 12:24:02;;;;;;;10.95;3.60;;;22.10;96.00;;;;;;5011654;28;20510;-68
2023/07/16 12:26:28;;;;;;;10.95;3.50;;;21.90;95.80;;;;;;4992260;28;257170;-68
2023/07/16 12:28:55;;;;;;;11.85;3.78;;;21.40;96.20;;;;;;5010584;28;20430;-68
2023/07/16 12:31:21;;;;;;;14.95;4.53;;;21.10;96.60;;;;;;4984097;28;248470;-70
2023/07/16 12:33:48;;;;;;;11.43;4.15;;;20.80;99.00;;;;;;4996144;28;20418;-66